Waarschuwingen Friesland

Code Groen. Er zijn momenteel geen waarschuwingen van kracht.

Bron: KNMI


Webcam Zuidwest  Webcam Zuidwest


Onweer radar more information blitzortung!


Regen radar more information rain snow radar


Weerstation Noordbergum

Weerstation Luyksgestel

Website Noardburgum


U vindt ons ook hier:

Het Weer Aktueel

UK Metoffice

European Weather Network

Weather Underground

AWEKAS

Citizen Weather Observer Program (CWOP)

HAMweather, WeatherForYou, PWS Weather



METAR rapporten vliegvelden

   
EHLW - Leeuwarden Rnlaf, Netherlands
Afstand tot: W 17 km
Gewijzigd: 28-01-2023 23:25
Bewolking  
Bewolking  
   Wind: ZW 11.1 km/h
Wind: ZW 11.1 km/h
Temperatuur: 4°C
Voelt als: 1°C
Dauwpunt: 2°C
Vochtigheid: 87%
Barometer: 1028 hPa
Bewolking: Bewolking
Zicht: meer dan 10 km
Bewolking: Bewolking 2700 ft
EHLW 282225Z AUTO 22006KT 9999 OVC027 04/02 Q1028 BLU
EHMA - Awg-1 Sea, Netherlands
Afstand tot: N 31 km
Gewijzigd: 28-01-2023 23:25
Bewolking  
Bewolking  
   Wind: ZW 22.2 km/h
Wind: ZW 22.2 km/h
Temperatuur: 5°C
Voelt als: 1°C
Dauwpunt: 3°C
Vochtigheid: 87%
Barometer: 1028 hPa
Bewolking: Bewolking
Zicht: meer dan 10 km
Bewolking: Grotendeels bewolkt 2100 ft,
Bewolking 2400 ft
EHMA 282225Z AUTO 23012KT 9999 BKN021 OVC024 05/03 Q1028
EHGG - Groningen/Eelde, Netherlands
Afstand tot: OZO 40 km
Gewijzigd: 28-01-2023 23:25
Bewolking  
Bewolking  
   Wind: ZW 11.1 km/h
Wind: ZW 11.1 km/h
Temperatuur: 4°C
Voelt als: 1°C
Dauwpunt: 2°C
Vochtigheid: 87%
Barometer: 1028 hPa
Bewolking: Bewolking
Zicht: meer dan 10 km
Bewolking: Grotendeels bewolkt 2600 ft,
Bewolking 3000 ft
EHGG 282225Z AUTO 23006KT 9999 BKN026 OVC030 04/02 Q1028
EHVL - Vlieland Island, Netherlands
Afstand tot: W 72 km
Gewijzigd: 28-01-2023 23:25
Bewolking  
Bewolking  
   Wind: Westen 16.7 km/h
Wind: Westen 16.7 km/h
Temperatuur: 6°C
Voelt als: 3°C
Dauwpunt: 3°C
Vochtigheid: 81%
Barometer: 1028 hPa
Bewolking: Bewolking
Zicht: meer dan 10 km
Bewolking: Bewolking 1800 ft
EHVL 282225Z AUTO 26009KT 9999 OVC018 06/03 Q1028 WHT
EHMG - L9-Ff-1 Sea, Netherlands
Afstand tot: WNW 81 km
Gewijzigd: 28-01-2023 23:25
Bewolking  
Bewolking  
   Wind: WZW 22.2 km/h
Wind: WZW 22.2 km/h
Temperatuur: 6°C
Voelt als: 2°C
Dauwpunt: 3°C
Vochtigheid: 81%
Barometer: 1029 hPa
Bewolking: Bewolking
Zicht: meer dan 10 km
Bewolking: Licht bewolkt 1100 ft,
Grotendeels bewolkt 1700 ft,
Bewolking 2000 ft
EHMG 282225Z AUTO 25012KT 9999 FEW011 BKN017 OVC020 06/03 Q1029
EHKD - De Kooy (navy), Netherlands
Afstand tot: WZW 89 km
Gewijzigd: 28-01-2023 23:25
Bewolking  
Bewolking  
   Wind: Westen 13 km/h
Wind: Westen 13 km/h
Temperatuur: 6°C
Voelt als: 3°C
Dauwpunt: 3°C
Vochtigheid: 81%
Barometer: 1029 hPa
Bewolking: Bewolking
Zicht: meer dan 10 km
Bewolking: Bewolking 1900 ft
EHKD 282225Z AUTO 26007KT 230V290 9999 OVC019 06/03 Q1029 WHT

Script ontwikkeld door  Saratoga-weather.org Aangepast voor de template door  Weerstation Leuven

Apparatuur in gebruik:

Weerstation
Davis Vantage pro 2

Weerprogramma
Meteobridge

Weercomputer
Meteobridge Nano SD

Webleverancier
Versio

Davis Vantage pro 2

Meteobridge

Meteobridge Nano SD

Versio